createdAt,value
2022-10-18T00:00:07.454Z,61.39
2022-10-18T00:02:34.508Z,61.35
2022-10-18T00:05:01.323Z,61.41
2022-10-18T00:07:28.221Z,61.22
2022-10-18T00:09:55.177Z,61.22
2022-10-18T00:12:21.931Z,61.17
2022-10-18T00:14:51.061Z,61.25
2022-10-18T00:17:18.553Z,61.19
2022-10-18T00:19:46.748Z,61.10
2022-10-18T00:22:13.486Z,60.86
2022-10-18T00:24:40.226Z,60.98
2022-10-18T00:27:06.960Z,61.06
2022-10-18T00:29:33.717Z,61.05
2022-10-18T00:32:00.522Z,61.03
2022-10-18T00:34:27.318Z,61.07
2022-10-18T00:36:55.246Z,61.00
2022-10-18T00:39:22.656Z,61.36
2022-10-18T00:41:50.462Z,61.09
2022-10-18T00:44:17.138Z,61.60
2022-10-18T00:46:49.464Z,61.53
2022-10-18T00:49:19.574Z,61.64
2022-10-18T00:51:51.479Z,61.50
2022-10-18T00:54:20.924Z,61.57
2022-10-18T00:56:47.787Z,61.40
2022-10-18T00:59:17.011Z,61.52
2022-10-18T01:01:44.776Z,61.64
2022-10-18T01:04:13.729Z,61.69
2022-10-18T01:06:53.876Z,61.91
2022-10-18T01:09:39.001Z,61.80
2022-10-18T01:12:29.809Z,61.79
2022-10-18T01:15:11.903Z,61.93
2022-10-18T01:17:58.093Z,62.00
2022-10-18T01:20:54.543Z,61.98
2022-10-18T01:23:39.870Z,61.95
2022-10-18T01:26:39.975Z,62.26
2022-10-18T01:29:44.464Z,62.60
2022-10-18T01:32:17.761Z,62.53
2022-10-18T01:34:47.794Z,62.36
2022-10-18T01:37:18.018Z,62.40
2022-10-18T01:39:48.191Z,62.31
2022-10-18T01:42:19.939Z,62.20
2022-10-18T01:44:48.567Z,62.35
2022-10-18T01:47:17.012Z,62.29
2022-10-18T01:49:43.845Z,62.53
2022-10-18T01:52:15.265Z,62.49
2022-10-18T07:02:01.472Z,67.39
2022-10-18T07:04:29.893Z,67.14
2022-10-18T07:06:56.805Z,66.84
2022-10-18T07:09:23.607Z,66.72
2022-10-18T07:11:50.408Z,66.65
2022-10-18T07:14:17.093Z,66.30
2022-10-18T07:16:43.852Z,66.40
2022-10-18T07:19:10.603Z,66.57
2022-10-18T07:21:37.377Z,66.83
2022-10-18T07:24:04.238Z,67.00
2022-10-18T07:26:33.401Z,67.13
2022-10-18T07:29:06.310Z,67.20
2022-10-18T07:31:34.385Z,67.43
2022-10-18T07:34:04.053Z,67.38
2022-10-18T07:36:30.816Z,67.65
2022-10-18T07:38:57.669Z,67.58
2022-10-18T07:41:24.424Z,67.91
2022-10-18T07:43:52.781Z,67.68
2022-10-18T07:46:21.822Z,67.79
2022-10-18T07:48:49.399Z,67.71
2022-10-18T07:51:16.933Z,67.48
2022-10-18T07:53:43.984Z,67.70
2022-10-18T07:56:18.465Z,67.94
2022-10-18T07:58:46.475Z,68.13
2022-10-18T08:01:14.663Z,68.32
2022-10-18T08:03:43.232Z,68.05
2022-10-18T08:06:12.578Z,68.14
2022-10-18T08:08:40.692Z,68.33
2022-10-18T08:11:20.013Z,68.50
2022-10-18T08:13:47.856Z,68.16
2022-10-18T08:16:18.329Z,68.34
2022-10-18T08:18:45.429Z,68.44
2022-10-18T08:21:14.139Z,68.65
2022-10-18T08:23:41.299Z,68.33
2022-10-18T08:26:13.989Z,67.99
2022-10-18T08:28:46.061Z,68.01
2022-10-18T08:31:20.943Z,68.21
2022-10-18T08:33:47.824Z,68.10
2022-10-18T08:36:16.665Z,68.04
2022-10-18T08:38:44.114Z,67.92
2022-10-18T08:41:30.482Z,67.94
2022-10-18T08:44:18.420Z,68.21
2022-10-18T08:46:52.081Z,67.87
2022-10-18T08:49:41.844Z,67.70
2022-10-18T08:52:26.588Z,67.63
2022-10-18T08:55:00.975Z,67.63
2022-10-18T08:57:28.235Z,67.72
2022-10-18T08:59:54.941Z,67.57
2022-10-18T09:02:31.277Z,67.54
2022-10-18T09:05:20.643Z,67.47
2022-10-18T09:08:18.513Z,67.41
2022-10-18T09:10:56.229Z,67.57
2022-10-18T09:13:32.327Z,67.49
2022-10-18T09:16:01.623Z,67.39
2022-10-18T09:18:53.135Z,67.28
2022-10-18T09:21:25.439Z,67.19
2022-10-18T09:24:13.517Z,66.92
2022-10-18T09:26:47.381Z,66.88
2022-10-18T09:29:38.164Z,66.80
2022-10-18T09:32:31.830Z,66.89
2022-10-18T09:35:26.153Z,66.50
2022-10-18T09:38:03.981Z,66.91
2022-10-18T09:40:36.517Z,66.64
2022-10-18T09:43:23.963Z,66.60
2022-10-18T09:45:54.753Z,66.57
2022-10-18T09:48:27.999Z,66.42
2022-10-18T09:51:01.124Z,66.14
2022-10-18T09:53:45.070Z,66.33
2022-10-18T09:56:28.201Z,66.30
2022-10-18T09:58:54.881Z,66.36
2022-10-18T10:01:25.647Z,66.08
2022-10-18T10:03:53.112Z,65.61
2022-10-18T10:06:34.886Z,65.49
2022-10-18T10:09:08.258Z,65.10
2022-10-18T10:11:45.546Z,64.98
2022-10-18T10:14:19.661Z,64.90
2022-10-18T10:17:04.009Z,64.89
2022-10-18T10:19:38.102Z,64.90
2022-10-18T10:22:13.516Z,64.69
2022-10-18T10:24:50.957Z,64.45
2022-10-18T10:27:29.842Z,63.99
2022-10-18T10:30:18.310Z,64.03
2022-10-18T10:32:48.016Z,63.86
2022-10-18T10:35:53.221Z,63.60
2022-10-18T10:38:29.222Z,63.44
2022-10-18T10:40:56.438Z,63.64
2022-10-18T10:43:38.237Z,63.69
2022-10-18T10:46:06.140Z,63.99
2022-10-18T10:48:39.509Z,63.57
2022-10-18T10:51:09.081Z,63.19
2022-10-18T10:53:38.171Z,62.39
2022-10-18T10:56:07.023Z,62.24
2022-10-18T10:58:41.636Z,61.85
2022-10-18T11:01:19.279Z,61.40
2022-10-18T11:03:48.827Z,60.99
2022-10-18T11:06:37.212Z,60.74
2022-10-18T11:09:12.965Z,60.55
2022-10-18T11:11:43.653Z,60.13
2022-10-18T11:14:26.646Z,60.04
2022-10-18T11:17:12.987Z,59.82
2022-10-18T11:20:02.455Z,59.62
2022-10-18T11:22:36.619Z,59.27
2022-10-18T11:25:05.284Z,58.48
2022-10-18T11:28:04.439Z,57.95
2022-10-18T11:30:53.682Z,57.68
2022-10-18T11:34:07.739Z,58.00
2022-10-18T11:36:54.561Z,58.02
2022-10-18T11:40:09.164Z,57.15
2022-10-18T11:42:52.373Z,56.93
2022-10-18T11:45:48.417Z,56.45
2022-10-18T11:48:42.708Z,56.23
2022-10-18T11:51:29.768Z,56.47
2022-10-18T11:54:35.495Z,55.95
2022-10-18T11:57:30.661Z,55.48
2022-10-18T12:00:14.235Z,55.60
2022-10-18T12:02:43.898Z,55.24
2022-10-18T12:05:23.200Z,55.07
2022-10-18T12:07:55.811Z,54.91
2022-10-18T12:10:32.810Z,54.86
2022-10-18T12:13:17.453Z,54.16
2022-10-18T12:15:45.733Z,54.56
2022-10-18T12:18:20.628Z,54.39
2022-10-18T12:20:54.886Z,53.92
2022-10-18T12:23:53.554Z,53.99
2022-10-18T12:26:21.540Z,53.46
2022-10-18T12:28:59.725Z,52.89
2022-10-18T12:31:39.306Z,53.14
2022-10-18T12:34:21.489Z,52.81
2022-10-18T12:37:20.547Z,53.82
2022-10-18T12:40:10.175Z,53.74
2022-10-18T12:42:45.484Z,53.09
2022-10-18T12:45:33.663Z,53.48
2022-10-18T12:48:08.048Z,53.03
2022-10-18T12:50:43.968Z,52.70
2022-10-18T12:53:10.592Z,52.10
2022-10-18T12:58:16.284Z,52.46
2022-10-18T13:00:42.941Z,52.02
2022-10-18T13:03:09.988Z,51.70
2022-10-18T13:05:55.057Z,51.96
2022-10-18T13:08:28.874Z,51.55
2022-10-18T13:11:01.421Z,51.52
2022-10-18T13:13:52.527Z,50.97
2022-10-18T13:16:31.712Z,50.96
2022-10-18T13:19:37.687Z,51.65
2022-10-18T13:22:31.936Z,51.45
2022-10-18T13:25:28.724Z,51.16
2022-10-18T13:28:05.067Z,50.78
2022-10-18T13:30:44.671Z,51.18
2022-10-18T13:33:30.453Z,51.06
2022-10-18T13:36:22.822Z,51.12
2022-10-18T13:38:57.941Z,51.30
2022-10-18T13:41:27.553Z,51.30
2022-10-18T13:44:12.015Z,51.63
2022-10-18T13:46:38.669Z,51.22
2022-10-18T13:49:17.425Z,51.32
2022-10-18T13:51:56.123Z,51.51
2022-10-18T13:54:41.355Z,51.04
2022-10-18T13:57:26.377Z,51.62
2022-10-18T14:00:23.058Z,51.58
2022-10-18T14:03:26.615Z,50.91
2022-10-18T14:06:12.034Z,51.19
2022-10-18T14:09:25.499Z,50.87
2022-10-18T14:12:20.860Z,51.06
2022-10-18T14:14:56.457Z,50.82
2022-10-18T14:17:54.138Z,50.57
2022-10-18T14:20:49.099Z,51.28
2022-10-18T14:23:21.501Z,51.43
2022-10-18T14:25:48.834Z,51.95
2022-10-18T14:28:27.347Z,52.10
2022-10-18T14:31:20.845Z,51.93
2022-10-18T14:33:57.871Z,49.44
2022-10-18T14:36:29.937Z,51.54
2022-10-18T14:38:56.595Z,52.56
2022-10-18T14:41:35.169Z,52.06
2022-10-18T14:44:22.067Z,52.24
2022-10-18T14:46:59.240Z,52.69
2022-10-18T14:49:26.685Z,52.84
2022-10-18T14:51:56.913Z,53.20
2022-10-18T14:54:31.650Z,53.37
2022-10-18T14:57:00.559Z,53.77
2022-10-18T14:59:31.048Z,54.39
2022-10-18T15:02:17.737Z,54.47
2022-10-18T15:04:46.550Z,54.53
2022-10-18T15:07:16.703Z,55.06
2022-10-18T15:09:44.053Z,55.28
2022-10-18T15:12:14.280Z,55.88
2022-10-18T15:14:42.733Z,56.17
2022-10-18T15:17:27.754Z,56.66
2022-10-18T15:20:05.002Z,57.29
2022-10-18T15:22:34.055Z,57.23
2022-10-18T15:25:16.142Z,57.51
2022-10-18T15:27:58.309Z,57.77
2022-10-18T15:30:43.208Z,57.56
2022-10-18T15:33:23.271Z,57.71
2022-10-18T15:35:52.304Z,57.76
2022-10-18T15:38:26.050Z,57.85
2022-10-18T15:40:53.454Z,58.08
2022-10-18T15:43:23.238Z,58.61
2022-10-18T15:46:01.598Z,58.59
2022-10-18T15:48:40.723Z,58.54
2022-10-18T15:51:12.991Z,58.70
2022-10-18T15:53:42.806Z,59.28
2022-10-18T15:56:31.823Z,59.24
2022-10-18T15:59:03.616Z,59.29
2022-10-18T16:01:35.574Z,59.39
2022-10-18T16:04:08.663Z,59.49
2022-10-18T16:06:37.702Z,59.72
2022-10-18T16:09:05.201Z,59.79
2022-10-18T16:11:31.858Z,60.00
2022-10-18T16:14:00.545Z,60.21
2022-10-18T16:16:28.999Z,60.22
2022-10-18T16:18:56.610Z,60.12
2022-10-18T16:21:35.257Z,60.45
2022-10-18T16:24:02.285Z,60.75
2022-10-18T16:26:29.333Z,60.48
2022-10-18T16:28:57.636Z,60.61
2022-10-18T16:31:27.237Z,60.26
2022-10-18T16:33:55.284Z,60.43
2022-10-18T16:36:25.085Z,60.32
2022-10-18T16:38:52.395Z,60.47
2022-10-18T16:41:19.128Z,60.47
2022-10-18T16:43:47.618Z,60.15
2022-10-18T16:46:29.566Z,59.83
2022-10-18T16:48:56.728Z,59.99
2022-10-18T16:51:24.465Z,59.58
2022-10-18T16:53:53.489Z,59.12
2022-10-18T16:56:21.467Z,59.26
2022-10-18T16:58:49.453Z,59.07
2022-10-18T17:01:19.724Z,59.23
2022-10-18T17:03:47.839Z,59.57
2022-10-18T17:06:33.428Z,59.52
2022-10-18T17:09:00.945Z,59.50
2022-10-18T17:11:28.579Z,59.50
2022-10-18T17:13:56.028Z,59.34
2022-10-18T17:19:04.202Z,58.95
2022-10-18T17:21:32.184Z,59.30
2022-10-18T17:24:01.626Z,59.14
2022-10-18T17:26:29.907Z,59.21
2022-10-18T17:29:04.234Z,59.19
2022-10-18T17:31:32.839Z,58.98
2022-10-18T17:34:03.860Z,58.75
2022-10-18T17:36:32.613Z,58.85
2022-10-18T17:39:00.012Z,58.34
2022-10-18T17:41:27.896Z,58.49
2022-10-18T17:43:55.287Z,58.82
2022-10-18T17:46:24.250Z,58.71
2022-10-18T17:48:51.331Z,58.35
2022-10-18T17:51:19.233Z,58.19
2022-10-18T17:53:47.223Z,58.29
2022-10-18T17:56:15.234Z,57.82
2022-10-18T17:58:46.233Z,57.99
2022-10-18T18:01:15.030Z,57.28
2022-10-18T18:03:42.261Z,57.51
2022-10-18T18:06:21.681Z,57.57
2022-10-18T18:08:50.129Z,57.87
2022-10-18T18:11:18.427Z,57.98
2022-10-18T18:13:45.901Z,57.80
2022-10-18T18:16:19.505Z,57.54
2022-10-18T18:18:47.678Z,57.79
2022-10-18T18:21:14.899Z,57.83
2022-10-18T18:23:42.218Z,57.67
2022-10-18T18:26:09.240Z,57.59
2022-10-18T18:28:36.810Z,57.54
2022-10-18T18:31:08.828Z,57.56
2022-10-18T18:33:37.531Z,57.94
2022-10-18T18:36:07.357Z,58.22
2022-10-18T18:38:37.530Z,57.97
2022-10-18T18:41:08.014Z,58.19
2022-10-18T18:43:36.098Z,58.18
2022-10-18T18:46:04.918Z,58.35
2022-10-18T18:48:34.647Z,58.67
2022-10-18T18:51:03.865Z,58.38
2022-10-18T18:53:31.861Z,58.28
2022-10-18T18:56:07.872Z,58.08
2022-10-18T18:58:37.206Z,58.14
2022-10-18T19:01:13.023Z,58.63
2022-10-18T19:03:42.218Z,58.42
2022-10-18T19:06:12.301Z,58.49
2022-10-18T19:08:40.917Z,58.57
2022-10-18T19:11:09.708Z,58.43
2022-10-18T19:13:37.343Z,58.61
2022-10-18T19:16:40.495Z,58.73
2022-10-18T19:19:19.392Z,58.52
2022-10-18T19:21:51.781Z,58.44
2022-10-18T19:24:21.112Z,58.38
2022-10-18T19:26:57.036Z,58.54
2022-10-18T19:29:30.172Z,58.76
2022-10-18T19:32:00.138Z,58.64
2022-10-18T19:34:29.210Z,58.61
2022-10-18T19:36:56.937Z,58.34
2022-10-18T19:39:29.901Z,58.39
2022-10-18T19:42:00.369Z,58.44
2022-10-18T19:44:32.349Z,58.62
2022-10-18T19:46:59.769Z,58.65
2022-10-18T19:49:29.134Z,59.19
2022-10-18T19:51:56.996Z,59.14
2022-10-18T19:54:25.101Z,59.14
2022-10-18T19:56:52.422Z,59.06
2022-10-18T19:59:19.764Z,59.15
2022-10-18T20:01:46.868Z,59.29
2022-10-18T20:04:14.664Z,59.32
2022-10-18T20:06:42.712Z,59.17
2022-10-18T20:09:13.485Z,58.97
2022-10-18T20:11:43.067Z,59.01
2022-10-18T20:14:11.261Z,58.88
2022-10-18T20:16:38.186Z,58.75
2022-10-18T20:19:08.415Z,58.45
2022-10-18T20:21:36.488Z,58.12
2022-10-18T20:24:04.793Z,58.30
2022-10-18T20:26:32.292Z,57.84
2022-10-18T20:29:00.006Z,58.04
2022-10-18T20:31:31.914Z,58.25
2022-10-18T20:34:03.887Z,58.43
2022-10-18T20:36:32.476Z,58.42
2022-10-18T20:38:59.692Z,58.40
2022-10-18T20:41:32.064Z,58.04
2022-10-18T20:44:01.716Z,58.46
2022-10-18T20:46:34.055Z,58.79
2022-10-18T20:49:00.960Z,58.94
2022-10-18T20:51:28.037Z,58.83
2022-10-18T20:53:55.051Z,58.89
2022-10-18T20:56:26.762Z,59.30
2022-10-18T20:58:57.644Z,59.15
2022-10-18T21:01:30.642Z,58.89
2022-10-18T21:04:00.168Z,59.09
2022-10-18T21:06:28.351Z,59.16
2022-10-18T21:09:00.923Z,59.17
2022-10-18T21:11:29.080Z,59.36
2022-10-18T21:14:00.262Z,59.50
2022-10-18T21:16:27.714Z,59.72
